createdAt,value
2018-04-11T00:00:29.841Z,71.00
2018-04-11T00:02:58.844Z,70.00
2018-04-11T00:05:27.896Z,70.20
2018-04-11T00:07:56.973Z,70.50
2018-04-11T00:10:25.991Z,70.30
2018-04-11T00:12:55.036Z,70.60
2018-04-11T00:15:24.068Z,70.80
2018-04-11T00:17:53.146Z,70.50
2018-04-11T00:20:22.932Z,70.90
2018-04-11T00:22:51.953Z,70.90
2018-04-11T00:25:21.029Z,70.50
2018-04-11T00:27:50.035Z,70.20
2018-04-11T00:30:19.844Z,70.90
2018-04-11T00:32:49.624Z,71.10
2018-04-11T00:35:18.672Z,71.00
2018-04-11T00:37:47.728Z,70.80
2018-04-11T00:40:16.750Z,71.20
2018-04-11T00:42:46.557Z,71.30
2018-04-11T00:45:15.581Z,71.20
2018-04-11T00:47:44.669Z,71.10
2018-04-11T00:50:13.685Z,71.30
2018-04-11T00:55:47.799Z,70.90
2018-04-11T00:58:16.868Z,70.90
2018-04-11T01:00:46.651Z,70.40
2018-04-11T01:03:15.819Z,70.40
2018-04-11T01:05:44.835Z,70.30
2018-04-11T01:08:13.857Z,70.30
2018-04-11T01:10:44.694Z,70.60
2018-04-11T01:13:13.733Z,70.70
2018-04-11T01:15:42.748Z,71.00
2018-04-11T01:18:11.803Z,71.80
2018-04-11T01:20:40.831Z,71.90
2018-04-11T01:23:09.855Z,71.90
2018-04-11T01:25:39.658Z,71.40
2018-04-11T01:28:08.684Z,71.30
2018-04-11T01:30:37.702Z,71.60
2018-04-11T01:33:06.752Z,71.60
2018-04-11T01:35:35.787Z,72.00
2018-04-11T01:38:04.838Z,72.10
2018-04-11T01:40:33.853Z,71.70
2018-04-11T01:43:02.891Z,71.70
2018-04-11T01:45:31.914Z,71.90
2018-04-11T01:48:01.733Z,71.60
2018-04-11T01:50:30.765Z,71.60
2018-04-11T01:52:59.816Z,71.60
2018-04-11T01:55:28.845Z,71.30
2018-04-11T01:57:57.899Z,70.50
2018-04-11T02:00:26.924Z,70.50
2018-04-11T02:02:56.004Z,70.30
2018-04-11T02:05:25.028Z,70.30
2018-04-11T02:07:54.081Z,70.50
2018-04-11T02:10:23.097Z,69.90
2018-04-11T02:12:52.143Z,69.30
2018-04-11T02:15:21.950Z,69.80
2018-04-11T02:17:51.010Z,69.80
2018-04-11T02:20:20.033Z,69.90
2018-04-11T02:22:49.094Z,69.70
2018-04-11T02:25:18.115Z,70.00
2018-04-11T02:27:47.166Z,70.30
2018-04-11T02:30:16.194Z,70.00
2018-04-11T02:32:45.257Z,69.90
2018-04-11T02:35:14.272Z,69.70
2018-04-11T02:37:43.333Z,69.60
2018-04-11T02:40:12.374Z,69.30
2018-04-11T02:42:41.430Z,69.40
2018-04-11T02:45:10.462Z,69.50
2018-04-11T02:47:39.491Z,69.30
2018-04-11T02:50:08.573Z,69.20
2018-04-11T02:52:38.379Z,69.20
2018-04-11T02:55:07.426Z,69.20
2018-04-11T02:57:36.478Z,69.20
2018-04-11T03:00:05.515Z,69.10
2018-04-11T03:02:34.565Z,69.10
2018-04-11T03:05:03.594Z,68.80
2018-04-11T03:07:32.668Z,68.90
2018-04-11T03:10:01.710Z,68.70
2018-04-11T03:12:30.725Z,68.90
2018-04-11T03:14:59.785Z,69.00
2018-04-11T03:17:28.804Z,69.00
2018-04-11T03:19:58.590Z,69.40
2018-04-11T03:22:27.672Z,69.40
2018-04-11T03:24:56.682Z,69.00
2018-04-11T03:27:25.696Z,69.00
2018-04-11T03:29:55.513Z,69.30
2018-04-11T03:32:25.296Z,69.50
2018-04-11T03:34:54.341Z,69.50
2018-04-11T03:37:23.395Z,69.50
2018-04-11T03:39:52.410Z,69.50
2018-04-11T03:42:21.473Z,69.80
2018-04-11T03:44:50.488Z,70.10
2018-04-11T03:47:20.403Z,70.50
2018-04-11T03:49:50.233Z,70.60
2018-04-11T03:52:19.258Z,70.50
2018-04-11T03:54:48.280Z,70.60
2018-04-11T03:57:17.331Z,70.70
2018-04-11T03:59:46.345Z,70.80
2018-04-11T04:02:15.394Z,70.80
2018-04-11T04:04:44.412Z,70.90
2018-04-11T04:07:13.481Z,71.00
2018-04-11T04:09:42.506Z,71.20
2018-04-11T04:12:11.575Z,71.30
2018-04-11T04:14:58.205Z,71.60
2018-04-11T04:17:44.945Z,71.80
2018-04-11T04:20:40.418Z,71.90
2018-04-11T04:23:09.458Z,71.50
2018-04-11T04:25:38.462Z,71.30
2018-04-11T04:28:08.276Z,71.80
2018-04-11T04:30:37.283Z,71.80
2018-04-11T04:33:06.330Z,72.00
2018-04-11T04:35:35.328Z,72.00
2018-04-11T04:38:04.374Z,72.00
2018-04-11T04:40:33.384Z,72.00
2018-04-11T04:43:02.442Z,71.80
2018-04-11T04:45:31.461Z,71.60
2018-04-11T04:48:00.512Z,71.30
2018-04-11T04:50:30.299Z,71.40
2018-04-11T04:52:59.344Z,71.30
2018-04-11T04:55:28.389Z,71.30
2018-04-11T04:57:57.533Z,71.20
2018-04-11T05:00:26.548Z,71.10
2018-04-11T05:02:55.559Z,70.90
2018-04-11T05:05:24.607Z,71.00
2018-04-11T05:07:53.613Z,71.20
2018-04-11T05:10:22.673Z,70.90
2018-04-11T05:12:51.694Z,71.00
2018-04-11T05:15:20.736Z,70.80
2018-04-11T05:17:49.767Z,70.20
2018-04-11T05:20:18.896Z,69.80
2018-04-11T05:22:47.902Z,69.80
2018-04-11T05:25:16.951Z,70.10
2018-04-11T05:27:46.002Z,69.90
2018-04-11T05:30:15.036Z,69.90
2018-04-11T05:32:44.089Z,69.90
2018-04-11T05:35:13.131Z,69.50
2018-04-11T05:37:42.150Z,69.80
2018-04-11T05:40:11.194Z,69.80
2018-04-11T05:42:40.234Z,70.10
2018-04-11T05:45:09.317Z,70.20
2018-04-11T05:47:38.320Z,71.00
2018-04-11T05:50:07.360Z,70.20
2018-04-11T05:52:36.411Z,70.20
2018-04-11T05:55:05.475Z,70.30
2018-04-11T05:57:34.496Z,70.40
2018-04-11T06:00:03.587Z,71.10
2018-04-11T06:02:32.609Z,71.60
2018-04-11T06:05:01.674Z,71.90
2018-04-11T06:07:30.698Z,72.20
2018-04-11T06:09:59.788Z,72.40
2018-04-11T06:12:28.811Z,72.50
2018-04-11T06:14:57.846Z,72.20
2018-04-11T06:17:27.004Z,71.90
2018-04-11T06:19:56.026Z,71.80
2018-04-11T06:22:25.070Z,71.80
2018-04-11T06:24:54.888Z,71.90
2018-04-11T06:27:23.908Z,71.90
2018-04-11T06:29:53.482Z,71.80
2018-04-11T06:32:23.101Z,71.70
2018-04-11T06:34:52.281Z,72.10
2018-04-11T06:37:21.320Z,72.30
2018-04-11T06:39:51.211Z,72.60
2018-04-11T06:42:20.981Z,72.00
2018-04-11T06:44:51.621Z,72.00
2018-04-11T06:47:20.644Z,71.70
2018-04-11T06:49:51.253Z,70.60
2018-04-11T06:52:20.336Z,70.20
2018-04-11T06:54:49.369Z,69.80
2018-04-11T06:57:18.430Z,69.20
2018-04-11T06:59:47.470Z,68.10
2018-04-11T07:02:16.515Z,67.50
2018-04-11T07:04:46.319Z,67.20
2018-04-11T07:07:15.394Z,67.10
2018-04-11T07:09:44.433Z,67.50
2018-04-11T07:12:13.456Z,67.60
2018-04-11T07:14:42.539Z,67.10
2018-04-11T07:17:11.559Z,66.30
2018-04-11T07:19:40.606Z,66.50
2018-04-11T07:22:10.454Z,65.80
2018-04-11T07:24:39.490Z,65.80
2018-04-11T07:27:09.290Z,66.60
2018-04-11T07:29:38.356Z,66.00
2018-04-11T07:32:07.400Z,64.40
2018-04-11T07:34:37.210Z,63.10
2018-04-11T07:37:06.272Z,63.10
2018-04-11T07:39:35.308Z,60.10
2018-04-11T07:42:05.199Z,60.20
2018-04-11T07:44:34.229Z,60.30
2018-04-11T07:47:03.265Z,59.70
2018-04-11T07:49:32.430Z,59.60
2018-04-11T07:52:01.465Z,60.60
2018-04-11T07:54:30.524Z,59.70
2018-04-11T07:56:59.580Z,58.20
2018-04-11T07:59:29.374Z,56.80
2018-04-11T08:01:58.522Z,56.60
2018-04-11T08:04:27.549Z,55.40
2018-04-11T08:06:56.601Z,55.20
2018-04-11T08:09:25.639Z,53.60
2018-04-11T08:11:54.682Z,53.80
2018-04-11T08:14:23.727Z,54.20
2018-04-11T08:16:52.841Z,52.20
2018-04-11T08:19:21.930Z,51.30
2018-04-11T08:21:51.016Z,50.60
2018-04-11T08:24:20.064Z,50.50
2018-04-11T08:26:49.126Z,50.50
2018-04-11T08:29:18.925Z,47.40
2018-04-11T08:31:47.976Z,47.30
2018-04-11T08:34:17.003Z,46.80
2018-04-11T08:36:46.083Z,46.90
2018-04-11T08:39:15.155Z,45.20
2018-04-11T08:41:44.284Z,44.30
2018-04-11T08:44:13.318Z,43.90
2018-04-11T08:46:43.112Z,43.30
2018-04-11T08:49:12.198Z,43.30
2018-04-11T08:51:41.217Z,43.70
2018-04-11T08:54:11.009Z,42.00
2018-04-11T08:56:40.071Z,42.00
2018-04-11T08:59:09.093Z,41.90
2018-04-11T09:01:38.154Z,42.50
2018-04-11T09:04:07.173Z,40.90
2018-04-11T09:06:36.390Z,39.90
2018-04-11T09:09:06.394Z,39.10
2018-04-11T09:11:35.419Z,38.50
2018-04-11T09:14:05.250Z,38.20
2018-04-11T09:16:34.273Z,38.10
2018-04-11T09:19:03.339Z,38.60
2018-04-11T09:21:32.368Z,38.10
2018-04-11T09:24:01.425Z,37.20
2018-04-11T09:26:30.462Z,38.60
2018-04-11T09:28:59.518Z,36.80
2018-04-11T09:31:28.577Z,36.50
2018-04-11T09:33:57.610Z,36.80
2018-04-11T09:36:26.661Z,36.30
2018-04-11T09:38:55.704Z,35.20
2018-04-11T09:41:24.751Z,35.10
2018-04-11T09:43:53.800Z,35.40
2018-04-11T09:46:22.821Z,35.40
2018-04-11T09:48:51.914Z,35.70
2018-04-11T09:51:20.953Z,36.80
2018-04-11T09:53:50.754Z,37.00
2018-04-11T09:56:21.102Z,36.90
2018-04-11T09:58:50.983Z,36.90
2018-04-11T10:01:20.033Z,36.90
2018-04-11T10:03:49.040Z,36.20
2018-04-11T10:06:18.169Z,35.60
2018-04-11T10:08:47.194Z,37.00
2018-04-11T10:11:16.253Z,37.00
2018-04-11T10:13:45.273Z,37.30
2018-04-11T10:16:15.096Z,34.60
2018-04-11T10:18:44.108Z,34.60
2018-04-11T10:21:13.213Z,33.70
2018-04-11T10:23:42.240Z,34.60
2018-04-11T10:26:11.305Z,32.60
2018-04-11T10:28:40.320Z,31.50
2018-04-11T10:31:09.374Z,31.00
2018-04-11T10:33:38.419Z,32.10
2018-04-11T10:36:07.465Z,32.70
2018-04-11T10:38:36.487Z,34.80
2018-04-11T10:41:05.570Z,32.20
2018-04-11T10:43:34.604Z,32.60
2018-04-11T10:46:03.649Z,29.40
2018-04-11T10:48:32.782Z,29.70
2018-04-11T10:51:01.831Z,27.90
2018-04-11T10:53:30.858Z,30.00
2018-04-11T10:55:59.917Z,30.30
2018-04-11T10:58:28.985Z,30.30
2018-04-11T11:00:58.058Z,28.80
2018-04-11T11:03:27.117Z,28.80
2018-04-11T11:05:56.173Z,28.50
2018-04-11T11:08:25.260Z,28.70
2018-04-11T11:10:54.307Z,29.20
2018-04-11T11:13:23.352Z,26.60
2018-04-11T11:15:52.392Z,27.60
2018-04-11T11:18:21.453Z,25.60
2018-04-11T11:20:58.147Z,28.30
2018-04-11T11:23:27.216Z,26.30
2018-04-11T11:25:57.050Z,25.60
2018-04-11T11:28:26.133Z,25.60
2018-04-11T11:30:55.173Z,26.60
2018-04-11T11:33:24.237Z,27.40
2018-04-11T11:35:53.310Z,29.70
2018-04-11T11:38:23.174Z,30.40
2018-04-11T11:40:57.251Z,30.40
2018-04-11T11:43:27.381Z,26.80
2018-04-11T11:45:56.645Z,26.70
2018-04-11T11:48:25.642Z,26.10
2018-04-11T11:50:55.483Z,27.60
2018-04-11T11:53:24.509Z,27.60
2018-04-11T11:55:54.586Z,27.90
2018-04-11T11:58:23.684Z,26.00
2018-04-11T12:00:53.037Z,25.40
2018-04-11T12:03:22.082Z,24.30
2018-04-11T12:05:51.133Z,26.00
2018-04-11T12:08:20.222Z,26.00
2018-04-11T12:10:49.243Z,26.80
2018-04-11T12:13:19.083Z,24.30
2018-04-11T12:15:48.156Z,24.30
2018-04-11T12:18:17.245Z,24.40
2018-04-11T12:20:46.326Z,24.40
2018-04-11T12:23:15.386Z,26.00
2018-04-11T12:25:44.413Z,25.30
2018-04-11T12:28:13.477Z,23.80
2018-04-11T12:30:42.501Z,23.20
2018-04-11T12:33:11.717Z,24.10
2018-04-11T12:35:40.833Z,24.80
2018-04-11T12:38:09.976Z,26.90
2018-04-11T12:40:39.177Z,28.50
2018-04-11T12:43:08.351Z,28.20
2018-04-11T12:45:37.775Z,28.20
2018-04-11T12:48:06.920Z,27.40
2018-04-11T12:50:36.045Z,26.20
2018-04-11T12:53:05.066Z,25.60
2018-04-11T12:55:34.108Z,24.30
2018-04-11T12:58:03.194Z,26.00
2018-04-11T13:00:32.271Z,23.90
2018-04-11T13:03:01.342Z,23.60
2018-04-11T13:05:30.384Z,21.40
2018-04-11T13:08:00.473Z,21.50
2018-04-11T13:10:29.494Z,21.50
2018-04-11T13:12:58.561Z,21.70
2018-04-11T13:15:27.592Z,22.70
2018-04-11T13:17:56.710Z,22.80
2018-04-11T13:20:25.730Z,23.40
2018-04-11T13:22:54.798Z,24.50
2018-04-11T13:25:23.827Z,25.30
2018-04-11T13:27:52.881Z,27.60
2018-04-11T13:30:21.953Z,29.80
2018-04-11T13:32:51.768Z,30.90
2018-04-11T13:35:21.568Z,30.90
2018-04-11T13:37:50.627Z,31.00
2018-04-11T13:40:19.646Z,31.00
2018-04-11T13:42:48.724Z,31.30
2018-04-11T13:45:17.747Z,30.20
2018-04-11T13:47:46.774Z,30.30
2018-04-11T13:50:15.821Z,31.30
2018-04-11T13:52:44.875Z,30.80
2018-04-11T13:55:13.898Z,30.30
2018-04-11T13:57:42.971Z,30.40
2018-04-11T14:00:12.070Z,30.40
2018-04-11T14:02:41.137Z,30.80
2018-04-11T14:05:10.649Z,31.60
2018-04-11T14:07:40.670Z,32.10
2018-04-11T14:10:09.704Z,32.80
2018-04-11T14:12:38.746Z,34.30
2018-04-11T14:15:07.812Z,31.90
2018-04-11T14:17:37.669Z,32.20
2018-04-11T14:20:06.936Z,32.20
2018-04-11T14:22:37.254Z,30.90
2018-04-11T14:25:06.473Z,29.10
2018-04-11T14:27:36.365Z,27.00
2018-04-11T14:30:06.189Z,24.80
2018-04-11T14:32:35.219Z,24.80
2018-04-11T14:35:04.578Z,24.10
2018-04-11T14:37:35.265Z,24.80
2018-04-11T14:40:04.336Z,25.60
2018-04-11T14:42:33.374Z,26.30
2018-04-11T14:45:02.544Z,28.10
2018-04-11T14:47:32.489Z,26.10
2018-04-11T14:50:01.807Z,26.70
2018-04-11T14:52:30.917Z,25.00
2018-04-11T14:54:59.965Z,24.30
2018-04-11T14:57:29.034Z,23.50
2018-04-11T14:59:58.090Z,23.60
2018-04-11T15:02:29.243Z,24.60
2018-04-11T15:04:58.793Z,24.60
2018-04-11T15:07:27.844Z,23.50
2018-04-11T15:09:56.949Z,23.80
2018-04-11T15:12:26.023Z,22.50
2018-04-11T15:14:55.055Z,24.30
2018-04-11T15:17:24.145Z,23.90
2018-04-11T15:19:53.173Z,25.70
2018-04-11T15:22:22.205Z,24.30
2018-04-11T15:24:51.296Z,25.30
2018-04-11T15:27:21.082Z,24.70
2018-04-11T15:29:50.119Z,24.70
2018-04-11T15:32:19.191Z,23.80
2018-04-11T15:34:49.003Z,24.50
2018-04-11T15:37:18.839Z,25.10
2018-04-11T15:39:47.883Z,25.10
2018-04-11T15:42:16.966Z,25.30
2018-04-11T15:44:46.003Z,26.10
2018-04-11T15:47:15.062Z,26.00
2018-04-11T15:49:44.171Z,26.50
2018-04-11T15:52:13.970Z,26.50
2018-04-11T15:54:43.025Z,26.40
2018-04-11T15:57:12.091Z,26.70
2018-04-11T15:59:41.245Z,27.00
2018-04-11T16:02:10.389Z,27.70
2018-04-11T16:04:39.581Z,25.90
2018-04-11T16:07:09.395Z,25.60
2018-04-11T16:09:39.177Z,26.50
2018-04-11T16:12:09.370Z,26.40
2018-04-11T16:14:38.602Z,26.90
2018-04-11T16:17:07.935Z,25.80
2018-04-11T16:19:36.993Z,25.50
2018-04-11T16:22:06.028Z,25.00
2018-04-11T16:24:35.196Z,24.90
2018-04-11T16:27:04.940Z,25.30
2018-04-11T16:29:33.986Z,26.40
2018-04-11T16:32:03.148Z,26.40
2018-04-11T16:34:32.563Z,26.70
2018-04-11T16:37:02.440Z,27.00
2018-04-11T16:39:32.238Z,26.90
2018-04-11T16:42:01.410Z,26.90
2018-04-11T16:44:30.453Z,25.90
2018-04-11T16:47:01.193Z,24.50
2018-04-11T16:49:30.225Z,23.40
2018-04-11T16:51:59.547Z,23.30
2018-04-11T16:54:32.265Z,23.20
2018-04-11T16:57:01.330Z,23.30
2018-04-11T16:59:30.368Z,23.70
2018-04-11T17:01:59.426Z,24.00
2018-04-11T17:04:28.461Z,24.20
2018-04-11T17:06:57.545Z,24.20
2018-04-11T17:09:26.587Z,24.50
2018-04-11T17:11:55.621Z,25.10
2018-04-11T17:14:24.712Z,25.90
2018-04-11T17:16:54.496Z,26.40
2018-04-11T17:19:23.572Z,26.30
2018-04-11T17:22:10.420Z,27.10
2018-04-11T17:24:57.126Z,27.30
2018-04-11T17:27:44.227Z,28.00
2018-04-11T17:30:31.008Z,28.30
2018-04-11T17:33:00.083Z,28.90
2018-04-11T17:35:29.113Z,29.10
2018-04-11T17:37:58.176Z,29.50
2018-04-11T17:40:27.225Z,29.80
2018-04-11T17:42:57.580Z,31.00
2018-04-11T17:45:26.711Z,30.30
2018-04-11T17:47:55.865Z,31.40
2018-04-11T17:50:25.409Z,31.10
2018-04-11T17:52:54.475Z,31.10
2018-04-11T17:55:23.479Z,31.80
2018-04-11T17:57:52.551Z,32.40
2018-04-11T18:00:21.591Z,32.90
2018-04-11T18:02:50.750Z,33.40
2018-04-11T18:05:20.207Z,34.20
2018-04-11T18:07:49.408Z,35.80
2018-04-11T18:10:18.442Z,37.60
2018-04-11T18:12:47.519Z,38.70
2018-04-11T18:15:16.954Z,40.00
2018-04-11T18:17:46.334Z,40.10
2018-04-11T18:20:15.855Z,40.90
2018-04-11T18:22:44.922Z,41.80
2018-04-11T18:25:15.010Z,43.50
2018-04-11T18:27:44.074Z,43.50
2018-04-11T18:30:13.126Z,44.60
2018-04-11T18:32:42.285Z,45.80
2018-04-11T18:35:11.784Z,46.90
2018-04-11T18:37:41.086Z,48.00
2018-04-11T18:40:10.389Z,49.00
2018-04-11T18:42:39.479Z,50.30
2018-04-11T18:45:08.508Z,50.60
2018-04-11T18:47:37.578Z,51.60
2018-04-11T18:50:06.986Z,52.00
2018-04-11T18:52:36.062Z,51.70
2018-04-11T18:55:05.092Z,52.10
2018-04-11T18:57:34.154Z,51.50
2018-04-11T19:00:03.188Z,51.80
2018-04-11T19:02:33.042Z,52.90
2018-04-11T19:05:02.077Z,52.80
2018-04-11T19:07:31.923Z,53.20
2018-04-11T19:10:00.963Z,53.20
2018-04-11T19:12:30.045Z,54.00
2018-04-11T19:14:59.100Z,54.60
2018-04-11T19:17:28.157Z,55.20
2018-04-11T19:19:57.250Z,55.80
2018-04-11T19:22:27.102Z,55.80
2018-04-11T19:24:56.341Z,55.70
2018-04-11T19:27:25.415Z,56.50
2018-04-11T19:29:54.458Z,56.00
2018-04-11T19:32:24.286Z,56.30
2018-04-11T19:34:53.309Z,56.30
2018-04-11T19:37:22.844Z,56.30
2018-04-11T19:39:51.925Z,56.60
2018-04-11T19:42:21.084Z,56.70
2018-04-11T19:44:50.114Z,57.40
2018-04-11T19:47:19.142Z,57.40
2018-04-11T19:49:49.043Z,57.50
2018-04-11T19:52:18.088Z,57.50
2018-04-11T19:54:47.123Z,57.30
2018-04-11T19:57:18.091Z,57.20
2018-04-11T19:59:47.122Z,56.80
2018-04-11T20:02:16.197Z,56.80
2018-04-11T20:04:45.440Z,57.10
2018-04-11T20:07:17.482Z,57.30
2018-04-11T20:09:46.504Z,57.30
2018-04-11T20:12:16.802Z,57.60
2018-04-11T20:14:45.887Z,57.70
2018-04-11T20:17:14.948Z,57.70
2018-04-11T20:19:44.746Z,57.70
2018-04-11T20:22:14.798Z,57.70
2018-04-11T20:24:49.011Z,57.70
2018-04-11T20:27:18.698Z,58.00
2018-04-11T20:29:47.735Z,58.40
2018-04-11T20:32:16.771Z,58.90
2018-04-11T20:34:46.612Z,59.40
2018-04-11T20:37:15.638Z,59.40
2018-04-11T20:39:44.696Z,59.40
2018-04-11T20:42:14.712Z,59.60
2018-04-11T20:44:43.787Z,59.80
2018-04-11T20:47:12.806Z,59.60
2018-04-11T20:49:41.825Z,59.50
2018-04-11T20:52:10.971Z,59.60
2018-04-11T20:54:40.822Z,59.70
2018-04-11T20:57:09.855Z,59.60
2018-04-11T20:59:38.927Z,59.50
2018-04-11T21:02:07.953Z,59.50
2018-04-11T21:04:38.753Z,60.30
2018-04-11T21:07:10.206Z,60.20
2018-04-11T21:09:39.798Z,60.60
2018-04-11T21:12:08.855Z,60.40
2018-04-11T21:14:38.424Z,60.50
2018-04-11T21:17:07.519Z,60.20
2018-04-11T21:19:36.705Z,59.90
2018-04-11T21:22:06.680Z,60.00
2018-04-11T21:24:35.827Z,60.00
2018-04-11T21:27:04.952Z,60.20
2018-04-11T21:29:33.986Z,60.60
2018-04-11T21:32:03.042Z,60.50
2018-04-11T21:34:32.308Z,60.70
2018-04-11T21:37:01.395Z,60.90
2018-04-11T21:39:30.425Z,61.10
2018-04-11T21:42:00.605Z,60.50
2018-04-11T21:44:29.840Z,60.40
2018-04-11T21:46:59.698Z,60.50
2018-04-11T21:49:28.857Z,60.50
2018-04-11T21:51:57.981Z,60.30
2018-04-11T21:54:27.032Z,60.10
2018-04-11T21:56:56.048Z,60.10
2018-04-11T21:59:25.285Z,60.30
2018-04-11T22:01:54.303Z,60.10
2018-04-11T22:04:24.137Z,59.80
2018-04-11T22:06:53.241Z,59.70
2018-04-11T22:09:22.265Z,59.80
2018-04-11T22:11:51.293Z,59.60
2018-04-11T22:14:21.234Z,59.00
2018-04-11T22:16:50.282Z,58.90
2018-04-11T22:19:19.306Z,58.90
2018-04-11T22:21:49.142Z,59.10
2018-04-11T22:24:18.187Z,59.00
2018-04-11T22:26:48.110Z,59.10
2018-04-11T22:29:17.166Z,58.80
2018-04-11T22:31:46.203Z,58.60
2018-04-11T22:34:15.275Z,58.30
2018-04-11T22:36:45.085Z,58.20
2018-04-11T22:39:14.153Z,58.10
2018-04-11T22:41:43.200Z,58.10
2018-04-11T22:44:12.286Z,58.10
2018-04-11T22:46:41.303Z,58.00
2018-04-11T22:49:10.385Z,57.80
2018-04-11T22:51:39.469Z,58.00
2018-04-11T22:54:08.529Z,58.00
2018-04-11T22:56:37.582Z,57.90
2018-04-11T22:59:06.633Z,58.00
2018-04-11T23:01:35.687Z,57.90
2018-04-11T23:04:04.780Z,58.00
2018-04-11T23:06:33.804Z,58.10
2018-04-11T23:09:02.892Z,58.40
2018-04-11T23:11:31.922Z,59.10
2018-04-11T23:14:00.969Z,59.10
2018-04-11T23:16:29.995Z,58.80
2018-04-11T23:18:59.053Z,58.40
2018-04-11T23:21:30.171Z,58.40
2018-04-11T23:23:59.241Z,58.50
2018-04-11T23:26:28.261Z,58.60
2018-04-11T23:29:02.093Z,58.60
2018-04-11T23:31:32.731Z,58.50
2018-04-11T23:34:01.793Z,58.60
2018-04-11T23:36:30.850Z,58.50
2018-04-11T23:38:59.953Z,58.30
2018-04-11T23:41:28.999Z,58.50
2018-04-11T23:43:58.026Z,58.60
2018-04-11T23:46:27.156Z,58.80
2018-04-11T23:48:56.172Z,58.90
2018-04-11T23:51:25.196Z,59.30
2018-04-11T23:53:54.360Z,59.30
2018-04-11T23:56:23.394Z,59.40
2018-04-11T23:58:52.431Z,59.50
